createdAt,value
2022-12-31T00:01:01.269Z,92417.25
2022-12-31T00:03:29.401Z,92418.34
2022-12-31T00:05:56.924Z,92410.59
2022-12-31T00:08:24.369Z,92393.69
2022-12-31T00:10:54.366Z,92393.25
2022-12-31T00:13:21.853Z,92392.25
2022-12-31T00:15:49.313Z,92398.28
2022-12-31T00:18:17.384Z,92403.59
2022-12-31T00:20:44.913Z,92403.09
2022-12-31T00:23:12.409Z,92400.66
2022-12-31T00:25:40.161Z,92418.41
2022-12-31T00:28:07.608Z,92419.19
2022-12-31T00:30:35.098Z,92412.31
2022-12-31T00:33:03.355Z,92418.00
2022-12-31T00:35:30.904Z,92411.22
2022-12-31T00:37:58.350Z,92406.25
2022-12-31T00:40:26.033Z,92398.03
2022-12-31T00:42:53.534Z,92402.59
2022-12-31T00:45:20.923Z,92399.72
2022-12-31T00:47:48.406Z,92400.91
2022-12-31T00:50:15.875Z,92390.75
2022-12-31T00:52:46.386Z,92407.75
2022-12-31T00:55:13.732Z,92402.50
2022-12-31T00:57:41.197Z,92416.81
2022-12-31T01:00:12.346Z,92410.69
2022-12-31T01:02:39.978Z,92403.97
2022-12-31T01:05:07.673Z,92407.63
2022-12-31T01:07:36.337Z,92406.06
2022-12-31T01:10:03.750Z,92404.22
2022-12-31T01:12:31.171Z,92404.91
2022-12-31T01:14:58.958Z,92405.97
2022-12-31T01:17:26.473Z,92409.50
2022-12-31T01:19:53.716Z,92408.63
2022-12-31T01:22:21.329Z,92406.72
2022-12-31T01:24:48.856Z,92400.28
2022-12-31T01:27:17.325Z,92404.22
2022-12-31T01:29:44.888Z,92410.97
2022-12-31T01:32:12.382Z,92400.13
2022-12-31T01:34:41.358Z,92392.38
2022-12-31T01:37:08.912Z,92381.81
2022-12-31T01:39:36.402Z,92387.19
2022-12-31T01:42:03.856Z,92402.97
2022-12-31T01:44:35.262Z,92403.69
2022-12-31T01:47:02.756Z,92412.25
2022-12-31T01:49:30.178Z,92425.41
2022-12-31T01:51:58.305Z,92414.31
2022-12-31T01:54:25.631Z,92431.25
2022-12-31T01:56:53.104Z,92424.78
2022-12-31T01:59:21.253Z,92425.78
2022-12-31T02:01:48.785Z,92426.41
2022-12-31T02:04:16.383Z,92418.56
2022-12-31T02:06:46.332Z,92443.78
2022-12-31T02:09:13.743Z,92444.75
2022-12-31T02:11:41.320Z,92445.19
2022-12-31T02:14:10.316Z,92436.84
2022-12-31T02:16:37.885Z,92437.41
2022-12-31T02:19:05.314Z,92440.09
2022-12-31T02:21:34.302Z,92437.56
2022-12-31T02:24:02.002Z,92439.44
2022-12-31T02:26:29.323Z,92428.88
2022-12-31T02:28:56.726Z,92438.69
2022-12-31T02:31:24.133Z,92431.94
2022-12-31T02:33:51.798Z,92435.69
2022-12-31T02:36:19.292Z,92443.91
2022-12-31T02:38:46.962Z,92447.59
2022-12-31T02:41:14.410Z,92448.06
2022-12-31T02:43:41.733Z,92435.03
2022-12-31T02:46:11.996Z,92434.56
2022-12-31T02:48:39.454Z,92431.50
2022-12-31T02:51:06.973Z,92433.75
2022-12-31T02:53:34.631Z,92428.00
2022-12-31T02:56:02.132Z,92429.47
2022-12-31T02:58:29.565Z,92421.91
2022-12-31T03:00:58.334Z,92423.34
2022-12-31T03:03:25.685Z,92428.97
2022-12-31T03:05:53.188Z,92435.63
2022-12-31T03:08:21.262Z,92436.19
2022-12-31T03:10:48.701Z,92427.16
2022-12-31T03:13:16.178Z,92431.47
2022-12-31T03:15:44.217Z,92432.69
2022-12-31T03:18:11.593Z,92427.72
2022-12-31T03:20:39.163Z,92435.81
2022-12-31T03:23:06.781Z,92432.84
2022-12-31T03:25:34.395Z,92436.44
2022-12-31T03:28:01.845Z,92440.22
2022-12-31T03:30:30.190Z,92435.66
2022-12-31T03:32:57.656Z,92426.78
2022-12-31T03:35:25.199Z,92430.88
2022-12-31T03:37:52.892Z,92438.75
2022-12-31T03:40:20.264Z,92435.44
2022-12-31T03:42:47.694Z,92432.44
2022-12-31T03:45:18.241Z,92437.03
2022-12-31T03:47:45.725Z,92438.16
2022-12-31T03:50:13.249Z,92437.88
2022-12-31T03:52:42.265Z,92430.22
2022-12-31T03:55:09.598Z,92432.63
2022-12-31T03:57:37.092Z,92433.97
2022-12-31T04:00:04.443Z,92424.78
2022-12-31T04:02:32.035Z,92432.16
2022-12-31T04:05:01.278Z,92436.28
2022-12-31T04:07:28.733Z,92436.41
2022-12-31T04:09:56.090Z,92434.13
2022-12-31T04:12:23.673Z,92433.09
2022-12-31T04:14:51.098Z,92439.84
2022-12-31T04:17:22.255Z,92433.59
2022-12-31T04:19:49.711Z,92431.84
2022-12-31T04:22:17.049Z,92427.78
2022-12-31T04:24:44.537Z,92424.88
2022-12-31T04:27:11.885Z,92415.09
2022-12-31T04:29:39.355Z,92421.09
2022-12-31T04:32:06.818Z,92421.41
2022-12-31T04:34:34.253Z,92429.50
2022-12-31T04:37:01.606Z,92425.00
2022-12-31T04:39:28.978Z,92419.59
2022-12-31T04:41:56.545Z,92431.66
2022-12-31T04:44:23.980Z,92438.66
2022-12-31T04:46:54.222Z,92433.75
2022-12-31T04:49:21.666Z,92437.78
2022-12-31T04:51:49.528Z,92434.97
2022-12-31T04:54:17.158Z,92433.97
2022-12-31T04:56:44.742Z,92434.25
2022-12-31T04:59:12.103Z,92420.47
2022-12-31T05:01:40.267Z,92422.56
2022-12-31T05:04:07.822Z,92425.38
2022-12-31T05:06:35.215Z,92431.69
2022-12-31T05:09:02.660Z,92433.00
2022-12-31T05:11:29.987Z,92439.69
2022-12-31T05:13:57.583Z,92441.78
2022-12-31T05:16:26.269Z,92442.03
2022-12-31T05:18:53.918Z,92439.09
2022-12-31T05:21:21.497Z,92436.84
2022-12-31T05:23:51.164Z,92441.00
2022-12-31T05:26:18.736Z,92442.41
2022-12-31T05:28:46.202Z,92436.53
2022-12-31T05:31:15.229Z,92443.28
2022-12-31T05:33:42.670Z,92445.69
2022-12-31T05:36:10.267Z,92447.84
2022-12-31T05:38:37.988Z,92441.16
2022-12-31T05:41:05.346Z,92436.72
2022-12-31T05:43:32.710Z,92441.53
2022-12-31T05:46:04.237Z,92443.97
2022-12-31T05:48:33.776Z,92443.75
2022-12-31T05:51:01.307Z,92442.38
2022-12-31T05:53:28.985Z,92452.84
2022-12-31T05:55:56.362Z,92454.56
2022-12-31T05:58:23.846Z,92455.63
2022-12-31T06:00:53.210Z,92453.66
2022-12-31T06:03:20.779Z,92457.63
2022-12-31T06:05:48.331Z,92454.09
2022-12-31T06:08:19.172Z,92456.94
2022-12-31T06:10:46.702Z,92458.66
2022-12-31T06:13:14.170Z,92467.91
2022-12-31T06:15:43.226Z,92463.28
2022-12-31T06:18:10.657Z,92463.31
2022-12-31T06:20:38.184Z,92469.31
2022-12-31T06:23:07.176Z,92468.16
2022-12-31T06:25:34.558Z,92466.22
2022-12-31T06:28:01.985Z,92463.16
2022-12-31T06:30:33.129Z,92460.78
2022-12-31T06:33:00.603Z,92464.63
2022-12-31T06:35:27.947Z,92463.59
2022-12-31T06:37:55.383Z,92463.56
2022-12-31T06:40:22.965Z,92474.91
2022-12-31T06:42:59.557Z,92475.19
2022-12-31T06:45:27.663Z,92487.06
2022-12-31T06:47:55.375Z,92484.50
2022-12-31T06:50:22.883Z,92488.91
2022-12-31T06:52:50.302Z,92486.09
2022-12-31T06:55:21.125Z,92485.53
2022-12-31T06:57:48.600Z,92496.22
2022-12-31T07:00:16.061Z,92490.63
2022-12-31T07:02:43.579Z,92500.13
2022-12-31T07:05:13.121Z,92495.66
2022-12-31T07:07:40.561Z,92500.97
2022-12-31T07:10:08.019Z,92498.34
2022-12-31T07:12:36.119Z,92495.19
2022-12-31T07:15:03.574Z,92493.16
2022-12-31T07:17:31.011Z,92492.38
2022-12-31T07:20:00.142Z,92492.06
2022-12-31T07:22:27.764Z,92498.56
2022-12-31T07:24:55.052Z,92493.00
2022-12-31T07:27:22.377Z,92493.56
2022-12-31T07:29:51.756Z,92499.75
2022-12-31T07:32:19.338Z,92495.22
2022-12-31T07:34:46.808Z,92494.59
2022-12-31T07:37:14.467Z,92515.34
2022-12-31T07:39:42.040Z,92524.72
2022-12-31T07:42:09.386Z,92515.78
2022-12-31T07:44:36.730Z,92528.66
2022-12-31T07:47:04.113Z,92527.69
2022-12-31T07:49:31.469Z,92532.81
2022-12-31T07:51:58.938Z,92534.69
2022-12-31T07:54:29.411Z,92520.13
2022-12-31T07:56:57.245Z,92517.75
2022-12-31T07:59:24.876Z,92519.63
2022-12-31T08:01:52.718Z,92512.97
2022-12-31T08:04:20.135Z,92508.47
2022-12-31T08:06:47.659Z,92501.75
2022-12-31T08:09:15.238Z,92496.53
2022-12-31T08:11:42.610Z,92509.47
2022-12-31T08:14:12.126Z,92505.88
2022-12-31T08:16:39.575Z,92502.94
2022-12-31T08:19:07.026Z,92506.22
2022-12-31T08:21:35.204Z,92503.44
2022-12-31T08:24:02.929Z,92495.00
2022-12-31T08:26:30.517Z,92501.22
2022-12-31T08:28:57.992Z,92508.78
2022-12-31T08:31:27.120Z,92509.19
2022-12-31T08:33:54.518Z,92515.06
2022-12-31T08:36:22.592Z,92507.72
2022-12-31T08:38:50.043Z,92515.19
2022-12-31T08:41:19.049Z,92517.47
2022-12-31T08:43:46.523Z,92524.63
2022-12-31T08:46:13.918Z,92527.00
2022-12-31T08:48:41.326Z,92527.69
2022-12-31T08:51:08.766Z,92521.59
2022-12-31T08:53:36.226Z,92525.00
2022-12-31T08:56:03.897Z,92529.47
2022-12-31T08:58:31.383Z,92527.06
2022-12-31T09:00:58.863Z,92526.41
2022-12-31T09:03:26.609Z,92519.97
2022-12-31T09:05:53.911Z,92520.25
2022-12-31T09:08:21.377Z,92522.94
2022-12-31T09:10:48.733Z,92523.38
2022-12-31T09:13:16.196Z,92510.47
2022-12-31T09:15:43.676Z,92510.38
2022-12-31T09:18:12.047Z,92518.97
2022-12-31T09:20:44.143Z,92512.53
2022-12-31T09:23:11.683Z,92509.72
2022-12-31T09:25:39.133Z,92519.72
2022-12-31T09:28:06.567Z,92520.13
2022-12-31T09:30:38.045Z,92519.47
2022-12-31T09:33:05.516Z,92526.09
2022-12-31T09:35:32.885Z,92519.16
2022-12-31T09:38:00.301Z,92518.53
2022-12-31T09:40:27.870Z,92514.56
2022-12-31T09:42:55.369Z,92518.34
2022-12-31T09:45:23.101Z,92520.34
2022-12-31T09:47:50.551Z,92512.72
2022-12-31T09:50:18.150Z,92511.88
2022-12-31T09:52:45.972Z,92506.03
2022-12-31T09:55:13.316Z,92506.63
2022-12-31T09:57:40.890Z,92501.63
2022-12-31T10:00:12.064Z,92507.91
2022-12-31T10:02:39.617Z,92506.28
2022-12-31T10:05:07.258Z,92497.34
2022-12-31T10:07:34.902Z,92499.81
2022-12-31T10:10:02.366Z,92497.19
2022-12-31T10:12:30.882Z,92494.75
2022-12-31T10:14:58.505Z,92497.44
2022-12-31T10:17:25.971Z,92496.03
2022-12-31T10:19:53.432Z,92496.72
2022-12-31T10:22:25.025Z,92487.31
2022-12-31T10:24:52.455Z,92482.03
2022-12-31T10:27:19.794Z,92483.44
2022-12-31T10:29:47.199Z,92478.94
2022-12-31T10:32:14.627Z,92473.19
2022-12-31T10:34:42.072Z,92474.84
2022-12-31T10:37:13.018Z,92473.78
2022-12-31T10:39:40.525Z,92473.78
2022-12-31T10:42:07.846Z,92468.50
2022-12-31T10:44:35.300Z,92474.94
2022-12-31T10:47:03.561Z,92471.91
2022-12-31T10:49:30.900Z,92471.56
2022-12-31T10:51:58.496Z,92467.41
2022-12-31T10:54:25.842Z,92465.91
2022-12-31T10:56:53.401Z,92461.28
2022-12-31T10:59:21.245Z,92465.09
2022-12-31T11:01:49.113Z,92471.13
2022-12-31T11:04:16.693Z,92473.31
2022-12-31T11:06:44.046Z,92468.91
2022-12-31T11:09:11.514Z,92456.03
2022-12-31T11:11:39.103Z,92448.09
2022-12-31T11:14:12.499Z,92446.13
2022-12-31T11:16:39.818Z,92450.69
2022-12-31T11:19:07.179Z,92439.63
2022-12-31T11:21:41.264Z,92439.66
2022-12-31T11:24:10.999Z,92429.09
2022-12-31T11:26:38.576Z,92428.75
2022-12-31T11:29:05.905Z,92425.72
2022-12-31T11:31:33.454Z,92433.28
2022-12-31T11:34:00.848Z,92433.28
2022-12-31T11:36:28.181Z,92428.34
2022-12-31T11:38:55.576Z,92422.66
2022-12-31T11:41:23.037Z,92409.81
2022-12-31T11:43:50.467Z,92400.34
2022-12-31T11:46:21.024Z,92394.94
2022-12-31T11:48:48.551Z,92389.75
2022-12-31T11:51:15.855Z,92391.22
2022-12-31T11:53:43.974Z,92372.34
2022-12-31T11:56:14.428Z,92373.50
2022-12-31T11:58:41.876Z,92374.25
2022-12-31T12:01:11.010Z,92378.41
2022-12-31T12:03:38.679Z,92362.50
2022-12-31T12:06:06.270Z,92369.66
2022-12-31T12:08:34.978Z,92364.72
2022-12-31T12:11:02.959Z,92357.13
2022-12-31T12:13:32.483Z,92357.94
2022-12-31T12:16:03.102Z,92366.28
2022-12-31T12:18:40.496Z,92370.06
2022-12-31T12:21:24.317Z,92360.59
2022-12-31T12:23:52.560Z,92356.03
2022-12-31T12:26:20.253Z,92355.66
2022-12-31T12:28:52.923Z,92353.03
2022-12-31T12:31:20.307Z,92352.28
2022-12-31T12:33:47.946Z,92342.00
2022-12-31T12:36:17.977Z,92345.34
2022-12-31T12:38:45.509Z,92354.06
2022-12-31T12:41:12.891Z,92362.06
2022-12-31T12:43:40.458Z,92355.28
2022-12-31T12:46:08.907Z,92357.53
2022-12-31T12:48:36.379Z,92350.66
2022-12-31T12:51:04.067Z,92352.13
2022-12-31T12:53:31.511Z,92355.41
2022-12-31T12:55:58.874Z,92347.03
2022-12-31T12:58:26.643Z,92355.00
2022-12-31T13:00:54.842Z,92356.88
2022-12-31T13:03:25.081Z,92354.75
2022-12-31T13:05:53.176Z,92351.47
2022-12-31T13:08:21.075Z,92359.53
2022-12-31T13:10:48.860Z,92352.25
2022-12-31T13:13:25.795Z,92358.59
2022-12-31T13:15:53.519Z,92355.38
2022-12-31T13:18:21.229Z,92361.75
2022-12-31T13:20:48.806Z,92361.69
2022-12-31T13:23:17.189Z,92357.25
2022-12-31T13:25:45.462Z,92360.13
2022-12-31T13:28:12.909Z,92358.69
2022-12-31T13:30:42.005Z,92356.88
2022-12-31T13:33:09.749Z,92364.22
2022-12-31T13:35:37.160Z,92354.28
2022-12-31T13:38:05.861Z,92364.56
2022-12-31T13:40:33.665Z,92357.75
2022-12-31T13:43:01.845Z,92362.88
2022-12-31T13:45:33.073Z,92349.31
2022-12-31T13:48:00.877Z,92354.63
2022-12-31T13:50:28.818Z,92347.56
2022-12-31T13:52:56.407Z,92355.94
2022-12-31T13:55:23.998Z,92351.38
2022-12-31T13:57:51.646Z,92360.47
2022-12-31T14:00:19.091Z,92349.69
2022-12-31T14:02:46.557Z,92367.38
2022-12-31T14:05:14.220Z,92374.88
2022-12-31T14:07:45.740Z,92370.34
2022-12-31T14:10:15.304Z,92368.47
2022-12-31T14:12:42.847Z,92363.19
2022-12-31T14:15:10.889Z,92368.53
2022-12-31T14:17:38.352Z,92370.78
2022-12-31T14:20:05.750Z,92371.53
2022-12-31T14:22:34.401Z,92375.72
2022-12-31T14:25:02.906Z,92371.97
2022-12-31T14:27:31.163Z,92380.31
2022-12-31T14:29:59.334Z,92387.09
2022-12-31T14:32:27.021Z,92396.94
2022-12-31T14:34:56.896Z,92397.31
2022-12-31T14:37:24.292Z,92401.44
2022-12-31T14:39:51.638Z,92397.69
2022-12-31T14:42:20.617Z,92396.19
2022-12-31T14:44:48.766Z,92382.94
2022-12-31T14:47:17.188Z,92396.94
2022-12-31T14:49:44.923Z,92396.97
2022-12-31T14:52:15.171Z,92399.22
2022-12-31T14:54:43.426Z,92401.84
2022-12-31T14:57:10.793Z,92406.81
2022-12-31T14:59:40.620Z,92405.28
2022-12-31T15:02:09.563Z,92414.38
2022-12-31T15:04:37.789Z,92417.03
2022-12-31T15:07:06.156Z,92416.66
2022-12-31T15:09:35.020Z,92415.13
2022-12-31T15:12:03.358Z,92423.06
2022-12-31T15:14:36.819Z,92412.09
2022-12-31T15:17:09.067Z,92416.25
2022-12-31T15:19:38.292Z,92419.28
2022-12-31T15:22:05.691Z,92416.66
2022-12-31T15:24:33.226Z,92434.44
2022-12-31T15:27:00.805Z,92437.09
2022-12-31T15:29:29.911Z,92430.66
2022-12-31T15:31:57.352Z,92440.09
2022-12-31T15:34:24.897Z,92433.59
2022-12-31T15:36:55.668Z,92432.41
2022-12-31T15:39:24.538Z,92436.69
2022-12-31T15:44:39.531Z,92444.91
2022-12-31T15:47:07.107Z,92443.09
2022-12-31T15:49:34.541Z,92440.00
2022-12-31T15:52:01.866Z,92442.59
2022-12-31T15:54:29.511Z,92449.09
2022-12-31T15:56:56.945Z,92448.81
2022-12-31T15:59:24.785Z,92447.56
2022-12-31T16:01:52.333Z,92462.06
2022-12-31T16:04:19.814Z,92456.22
2022-12-31T16:06:50.683Z,92456.66
2022-12-31T16:09:18.656Z,92447.88
2022-12-31T16:11:46.005Z,92446.88
2022-12-31T16:14:14.319Z,92455.38
2022-12-31T16:16:41.889Z,92458.59
2022-12-31T16:19:09.516Z,92462.28
2022-12-31T16:21:38.795Z,92456.22
2022-12-31T16:24:06.186Z,92459.94
2022-12-31T16:26:33.933Z,92461.88
2022-12-31T16:29:01.700Z,92470.22
2022-12-31T16:31:29.675Z,92467.66
2022-12-31T16:33:57.872Z,92470.53
2022-12-31T16:36:26.139Z,92469.91
2022-12-31T16:38:53.602Z,92467.94
2022-12-31T16:41:21.252Z,92469.97
2022-12-31T16:43:48.720Z,92469.31
2022-12-31T16:46:16.172Z,92473.81
2022-12-31T16:48:43.927Z,92478.38
2022-12-31T16:51:12.001Z,92480.06
2022-12-31T16:53:39.450Z,92476.56
2022-12-31T16:56:12.518Z,92482.25
2022-12-31T16:58:40.249Z,92481.50
2022-12-31T17:01:07.865Z,92474.25
2022-12-31T17:03:35.767Z,92470.81
2022-12-31T17:06:05.855Z,92476.94
2022-12-31T17:08:33.345Z,92487.94
2022-12-31T17:11:00.805Z,92485.41
2022-12-31T17:13:30.921Z,92483.16
2022-12-31T17:15:58.605Z,92480.09
2022-12-31T17:18:26.101Z,92476.84
2022-12-31T17:20:55.820Z,92474.41
2022-12-31T17:23:23.291Z,92471.94
2022-12-31T17:25:50.622Z,92473.00
2022-12-31T17:28:18.117Z,92483.56
2022-12-31T17:30:45.863Z,92482.84
2022-12-31T17:33:13.357Z,92485.25
2022-12-31T17:35:40.753Z,92490.91
2022-12-31T17:38:09.777Z,92484.53
2022-12-31T17:40:52.785Z,92490.31
2022-12-31T17:43:20.807Z,92482.78
2022-12-31T17:45:48.219Z,92487.34
2022-12-31T17:48:15.706Z,92479.22
2022-12-31T17:50:43.726Z,92479.91
2022-12-31T17:53:11.101Z,92471.97
2022-12-31T17:55:38.485Z,92481.31
2022-12-31T17:58:06.014Z,92477.06
2022-12-31T18:00:33.630Z,92476.47
2022-12-31T18:03:01.403Z,92477.47
2022-12-31T18:05:29.021Z,92479.28
2022-12-31T18:07:57.786Z,92477.31
2022-12-31T18:10:25.563Z,92477.00
2022-12-31T18:12:57.421Z,92474.13
2022-12-31T18:15:25.237Z,92488.47
2022-12-31T18:17:53.073Z,92483.19
2022-12-31T18:20:25.233Z,92484.06
2022-12-31T18:22:52.591Z,92477.53
2022-12-31T18:25:19.949Z,92477.16
2022-12-31T18:27:47.420Z,92478.69
2022-12-31T18:30:22.760Z,92480.38
2022-12-31T18:32:50.299Z,92476.03
2022-12-31T18:35:49.047Z,92476.72
2022-12-31T18:38:06.194Z,92476.97
2022-12-31T18:40:36.649Z,92476.25
2022-12-31T18:43:05.313Z,92474.50
2022-12-31T18:45:32.860Z,92480.63
2022-12-31T18:48:00.232Z,92476.50
2022-12-31T18:50:28.037Z,92475.03
2022-12-31T18:52:55.643Z,92470.34
2022-12-31T18:55:23.514Z,92475.22
2022-12-31T18:57:51.732Z,92488.47
2022-12-31T19:00:19.389Z,92488.25
2022-12-31T19:02:47.007Z,92482.06
2022-12-31T19:05:14.623Z,92475.09
2022-12-31T19:07:45.717Z,92482.75
2022-12-31T19:10:13.131Z,92498.75
2022-12-31T19:12:40.758Z,92483.81
2022-12-31T19:15:08.537Z,92503.53
2022-12-31T19:17:36.656Z,92495.25
2022-12-31T19:20:04.166Z,92497.16
2022-12-31T19:22:31.939Z,92488.09
2022-12-31T19:24:59.261Z,92483.97
2022-12-31T19:27:26.737Z,92487.19
2022-12-31T19:29:54.200Z,92490.28
2022-12-31T19:32:22.687Z,92487.09
2022-12-31T19:34:50.551Z,92473.91
2022-12-31T19:37:17.894Z,92483.53
2022-12-31T19:39:45.365Z,92481.84
2022-12-31T19:42:12.703Z,92484.25
2022-12-31T19:44:42.015Z,92479.94
2022-12-31T19:47:09.480Z,92495.03
2022-12-31T19:49:37.346Z,92479.19
2022-12-31T19:52:05.741Z,92490.09
2022-12-31T19:54:33.279Z,92486.63
2022-12-31T19:57:01.183Z,92495.75
2022-12-31T19:59:28.605Z,92493.81
2022-12-31T20:01:56.285Z,92498.88
2022-12-31T20:04:24.411Z,92507.41
2022-12-31T20:06:52.118Z,92509.16
2022-12-31T20:09:19.487Z,92509.09
2022-12-31T20:11:47.033Z,92517.63
2022-12-31T20:14:14.633Z,92511.00
2022-12-31T20:16:43.278Z,92512.59
2022-12-31T20:19:10.668Z,92509.78
2022-12-31T20:21:38.617Z,92512.66
2022-12-31T20:24:06.272Z,92514.22
2022-12-31T20:26:34.272Z,92524.97
2022-12-31T20:29:01.579Z,92524.16
2022-12-31T20:31:29.798Z,92530.16
2022-12-31T20:33:57.641Z,92533.34
2022-12-31T20:36:25.622Z,92532.53
2022-12-31T20:38:53.090Z,92538.03
2022-12-31T20:41:22.105Z,92526.38
2022-12-31T20:43:49.965Z,92540.38
2022-12-31T20:46:17.391Z,92543.44
2022-12-31T20:48:44.870Z,92533.19
2022-12-31T20:51:12.519Z,92540.94
2022-12-31T20:53:40.301Z,92539.84
2022-12-31T20:56:10.812Z,92536.69
2022-12-31T20:58:39.093Z,92534.25
2022-12-31T21:01:06.704Z,92523.63
2022-12-31T21:06:21.541Z,92529.22
2022-12-31T21:08:52.658Z,92528.94
2022-12-31T21:11:20.055Z,92521.28
2022-12-31T21:13:47.625Z,92523.88
2022-12-31T21:16:16.709Z,92527.44
2022-12-31T21:18:44.185Z,92535.59
2022-12-31T21:21:11.534Z,92528.16
2022-12-31T21:23:40.673Z,92521.63
2022-12-31T21:26:09.392Z,92538.56
2022-12-31T21:28:37.675Z,92531.72
2022-12-31T21:31:05.415Z,92532.66
2022-12-31T21:33:33.289Z,92536.13
2022-12-31T21:36:04.671Z,92529.22
2022-12-31T21:38:32.376Z,92527.72
2022-12-31T21:41:00.673Z,92541.06
2022-12-31T21:43:28.538Z,92546.44
2022-12-31T21:45:58.000Z,92540.06
2022-12-31T21:48:25.609Z,92538.75
2022-12-31T21:50:53.062Z,92546.03
2022-12-31T21:53:26.303Z,92546.19
2022-12-31T21:55:56.681Z,92536.34
2022-12-31T21:58:27.666Z,92549.03
2022-12-31T22:01:02.904Z,92535.03
2022-12-31T22:03:30.806Z,92537.41
2022-12-31T22:05:59.128Z,92540.56
2022-12-31T22:08:26.999Z,92547.53
2022-12-31T22:10:54.362Z,92532.16
2022-12-31T22:13:21.806Z,92551.00
2022-12-31T22:15:49.418Z,92558.88
2022-12-31T22:18:17.623Z,92544.28
2022-12-31T22:20:45.009Z,92564.31
2022-12-31T22:23:12.471Z,92553.84
2022-12-31T22:25:40.642Z,92552.81
2022-12-31T22:28:39.101Z,92563.03
2022-12-31T22:30:57.674Z,92563.00
2022-12-31T22:33:25.153Z,92564.78
2022-12-31T22:35:53.089Z,92566.56
2022-12-31T22:38:21.598Z,92552.06
2022-12-31T22:40:49.043Z,92564.59
2022-12-31T22:43:16.483Z,92564.84
2022-12-31T22:45:44.576Z,92565.81
2022-12-31T22:48:12.008Z,92569.81
2022-12-31T22:50:39.490Z,92571.53
2022-12-31T22:53:07.175Z,92578.53
2022-12-31T22:55:34.609Z,92572.00
2022-12-31T22:58:02.043Z,92578.63
2022-12-31T23:00:29.746Z,92588.81
2022-12-31T23:02:57.188Z,92584.06
2022-12-31T23:05:24.560Z,92581.84
2022-12-31T23:07:51.874Z,92583.56
2022-12-31T23:10:19.579Z,92568.63
2022-12-31T23:12:47.138Z,92578.72
2022-12-31T23:15:18.575Z,92590.19
2022-12-31T23:17:46.136Z,92589.78
2022-12-31T23:20:13.463Z,92592.31
2022-12-31T23:22:40.940Z,92595.16
2022-12-31T23:25:08.497Z,92584.78
2022-12-31T23:27:37.638Z,92580.56
2022-12-31T23:30:05.152Z,92584.72
2022-12-31T23:32:32.720Z,92587.66
2022-12-31T23:35:04.571Z,92590.16
2022-12-31T23:37:36.946Z,92588.06
2022-12-31T23:40:04.433Z,92595.34
2022-12-31T23:42:32.002Z,92585.47
2022-12-31T23:45:02.584Z,92587.16
2022-12-31T23:47:30.190Z,92578.63
2022-12-31T23:49:57.506Z,92580.06
2022-12-31T23:52:24.905Z,92576.69
2022-12-31T23:54:52.353Z,92587.81
2022-12-31T23:57:19.924Z,92590.22
2022-12-31T23:59:47.459Z,92584.50
